createdAt,value
2019-02-22T00:01:04.589Z,102197.30
2019-02-22T00:03:31.042Z,102205.09
2019-02-22T00:05:57.198Z,102199.55
2019-02-22T00:08:23.541Z,102196.60
2019-02-22T00:10:49.972Z,102202.10
2019-02-22T00:13:16.295Z,102204.84
2019-02-22T00:15:43.708Z,102199.27
2019-02-22T00:18:10.049Z,102202.95
2019-02-22T00:20:36.170Z,102218.38
2019-02-22T00:23:02.524Z,102213.52
2019-02-22T00:25:28.900Z,102211.91
2019-02-22T00:27:55.211Z,102223.91
2019-02-22T00:30:21.682Z,102226.34
2019-02-22T00:32:48.104Z,102231.70
2019-02-22T00:35:14.662Z,102226.55
2019-02-22T00:37:41.976Z,102230.00
2019-02-22T00:40:08.293Z,102234.24
2019-02-22T00:42:34.476Z,102234.59
2019-02-22T00:45:00.730Z,102241.11
2019-02-22T00:47:26.846Z,102239.16
2019-02-22T00:49:53.154Z,102236.08
2019-02-22T00:52:19.408Z,102234.78
2019-02-22T00:54:45.681Z,102236.59
2019-02-22T00:57:12.063Z,102241.66
2019-02-22T00:59:38.314Z,102240.66
2019-02-22T01:02:04.394Z,102248.56
2019-02-22T01:04:30.593Z,102255.58
2019-02-22T01:06:56.827Z,102255.81
2019-02-22T01:09:23.082Z,102264.19
2019-02-22T01:11:49.199Z,102264.36
2019-02-22T01:14:15.347Z,102260.02
2019-02-22T01:16:41.551Z,102263.44
2019-02-22T01:19:07.675Z,102269.59
2019-02-22T01:21:33.985Z,102265.21
2019-02-22T01:24:00.714Z,102272.39
2019-02-22T01:26:27.139Z,102269.80
2019-02-22T01:28:53.240Z,102264.77
2019-02-22T01:31:19.495Z,102272.39
2019-02-22T01:33:46.909Z,102277.59
2019-02-22T01:36:13.114Z,102285.59
2019-02-22T01:38:39.363Z,102289.19
2019-02-22T01:41:05.643Z,102289.88
2019-02-22T01:43:33.474Z,102301.73
2019-02-22T01:45:59.873Z,102301.77
2019-02-22T01:48:26.187Z,102305.36
2019-02-22T01:50:52.318Z,102306.35
2019-02-22T01:53:18.465Z,102313.88
2019-02-22T01:55:44.715Z,102312.81
2019-02-22T01:58:11.030Z,102311.37
2019-02-22T02:00:37.363Z,102310.39
2019-02-22T02:03:03.924Z,102316.52
2019-02-22T02:05:30.064Z,102319.80
2019-02-22T02:07:56.279Z,102324.65
2019-02-22T02:10:22.510Z,102325.81
2019-02-22T02:12:48.972Z,102321.80
2019-02-22T02:15:15.190Z,102328.34
2019-02-22T02:17:41.460Z,102330.94
2019-02-22T02:20:08.290Z,102321.70
2019-02-22T02:22:34.515Z,102307.92
2019-02-22T02:25:00.741Z,102311.92
2019-02-22T02:27:26.925Z,102315.58
2019-02-22T02:29:53.044Z,102311.83
2019-02-22T02:32:19.353Z,102323.59
2019-02-22T02:34:45.683Z,102328.41
2019-02-22T02:37:11.768Z,102326.47
2019-02-22T02:39:38.036Z,102322.39
2019-02-22T02:42:04.261Z,102329.71
2019-02-22T02:44:30.392Z,102330.36
2019-02-22T02:46:56.767Z,102326.05
2019-02-22T02:49:22.983Z,102325.00
2019-02-22T02:51:49.242Z,102334.13
2019-02-22T02:54:15.529Z,102334.84
2019-02-22T02:56:41.849Z,102332.34
2019-02-22T02:59:07.979Z,102336.55
2019-02-22T03:01:34.370Z,102342.68
2019-02-22T03:04:01.759Z,102346.85
2019-02-22T03:06:44.981Z,102350.72
2019-02-22T03:09:11.130Z,102357.52
2019-02-22T03:11:37.559Z,102357.56
2019-02-22T03:14:04.310Z,102355.61
2019-02-22T03:16:30.618Z,102366.66
2019-02-22T03:18:56.751Z,102363.17
2019-02-22T03:21:23.071Z,102365.42
2019-02-22T03:23:49.213Z,102373.81
2019-02-22T03:26:15.389Z,102385.33
2019-02-22T03:28:41.870Z,102375.89
2019-02-22T03:31:08.069Z,102372.85
2019-02-22T03:33:34.184Z,102379.66
2019-02-22T03:36:00.298Z,102374.19
2019-02-22T03:38:26.490Z,102376.14
2019-02-22T03:40:52.627Z,102377.44
2019-02-22T03:43:18.886Z,102381.34
2019-02-22T03:45:45.052Z,102384.65
2019-02-22T03:48:11.228Z,102391.02
2019-02-22T03:50:37.438Z,102399.27
2019-02-22T03:53:11.674Z,102398.63
2019-02-22T03:55:37.906Z,102394.50
2019-02-22T03:58:04.261Z,102405.38
2019-02-22T04:00:30.565Z,102403.77
2019-02-22T04:02:56.773Z,102406.68
2019-02-22T04:05:22.895Z,102410.67
2019-02-22T04:07:49.094Z,102408.91
2019-02-22T04:10:15.227Z,102417.64
2019-02-22T04:12:41.585Z,102413.44
2019-02-22T04:15:08.673Z,102414.84
2019-02-22T04:17:35.060Z,102418.75
2019-02-22T04:20:01.533Z,102419.97
2019-02-22T04:22:27.839Z,102425.53
2019-02-22T04:24:54.053Z,102424.16
2019-02-22T04:27:20.174Z,102425.53
2019-02-22T04:29:46.323Z,102430.30
2019-02-22T04:32:12.517Z,102425.48
2019-02-22T04:34:38.795Z,102429.55
2019-02-22T04:37:05.022Z,102425.17
2019-02-22T04:39:31.233Z,102432.37
2019-02-22T04:41:58.359Z,102438.52
2019-02-22T04:44:24.804Z,102434.55
2019-02-22T04:46:51.010Z,102434.14
2019-02-22T04:49:17.285Z,102448.94
2019-02-22T04:51:43.454Z,102453.32
2019-02-22T04:54:09.550Z,102465.49
2019-02-22T04:56:35.807Z,102459.22
2019-02-22T04:59:02.154Z,102461.17
2019-02-22T05:01:28.520Z,102465.84
2019-02-22T05:03:54.825Z,102480.31
2019-02-22T05:06:21.366Z,102469.72
2019-02-22T05:08:47.743Z,102470.80
2019-02-22T05:11:13.876Z,102467.37
2019-02-22T05:13:40.199Z,102474.41
2019-02-22T05:16:06.466Z,102471.22
2019-02-22T05:18:32.748Z,102485.51
2019-02-22T05:20:58.923Z,102477.89
2019-02-22T05:23:25.152Z,102478.82
2019-02-22T05:25:51.393Z,102488.74
2019-02-22T05:28:17.484Z,102494.54
2019-02-22T05:30:43.900Z,102493.13
2019-02-22T05:33:10.364Z,102490.27
2019-02-22T05:35:36.563Z,102498.77
2019-02-22T05:38:02.882Z,102501.45
2019-02-22T05:40:29.061Z,102502.30
2019-02-22T05:42:55.255Z,102499.08
2019-02-22T05:45:21.431Z,102499.08
2019-02-22T05:47:47.607Z,102499.48
2019-02-22T05:50:13.887Z,102499.03
2019-02-22T05:52:40.139Z,102502.44
2019-02-22T05:55:06.271Z,102503.27
2019-02-22T05:57:32.626Z,102500.22
2019-02-22T05:59:59.031Z,102498.44
2019-02-22T06:02:25.357Z,102503.81
2019-02-22T06:04:51.507Z,102509.16
2019-02-22T06:07:17.768Z,102513.36
2019-02-22T06:09:44.055Z,102507.16
2019-02-22T06:12:10.557Z,102509.07
2019-02-22T06:14:36.903Z,102515.79
2019-02-22T06:17:13.957Z,102517.98
2019-02-22T06:19:31.245Z,102517.39
2019-02-22T06:21:57.639Z,102517.06
2019-02-22T06:24:23.997Z,102523.78
2019-02-22T06:26:50.221Z,102527.25
2019-02-22T06:29:16.558Z,102528.14
2019-02-22T06:31:42.959Z,102541.02
2019-02-22T06:34:09.366Z,102547.52
2019-02-22T06:36:35.648Z,102551.61
2019-02-22T06:39:02.168Z,102559.01
2019-02-22T06:41:30.101Z,102557.81
2019-02-22T06:43:57.327Z,102556.90
2019-02-22T06:46:23.573Z,102565.12
2019-02-22T06:48:49.817Z,102561.98
2019-02-22T06:51:15.915Z,102564.20
2019-02-22T06:53:42.332Z,102565.11
2019-02-22T06:56:08.617Z,102569.08
2019-02-22T06:58:35.402Z,102560.59
2019-02-22T07:01:10.327Z,102572.43
2019-02-22T07:03:36.576Z,102574.41
2019-02-22T07:06:05.485Z,102582.91
2019-02-22T07:08:31.212Z,102574.92
2019-02-22T07:10:59.433Z,102584.39
2019-02-22T07:13:27.700Z,102594.97
2019-02-22T07:15:54.133Z,102598.17
2019-02-22T07:18:20.351Z,102604.75
2019-02-22T07:20:46.671Z,102603.42
2019-02-22T07:23:17.388Z,102610.51
2019-02-22T07:25:43.678Z,102600.30
2019-02-22T07:28:09.995Z,102604.34
2019-02-22T07:30:36.710Z,102620.64
2019-02-22T07:33:09.669Z,102613.73
2019-02-22T07:35:47.341Z,102619.20
2019-02-22T07:38:14.055Z,102625.22
2019-02-22T07:40:40.377Z,102636.42
2019-02-22T07:43:08.251Z,102642.33
2019-02-22T07:45:35.388Z,102645.73
2019-02-22T07:50:41.604Z,102656.14
2019-02-22T07:53:17.822Z,102653.91
2019-02-22T07:58:18.412Z,102664.91
2019-02-22T08:00:44.836Z,102666.88
2019-02-22T08:03:11.278Z,102660.69
2019-02-22T08:05:37.532Z,102675.73
2019-02-22T08:08:06.240Z,102674.61
2019-02-22T08:10:37.717Z,102680.89
2019-02-22T08:13:19.177Z,102693.23
2019-02-22T08:15:51.971Z,102703.59
2019-02-22T08:18:18.519Z,102700.98
2019-02-22T08:20:44.974Z,102710.20
2019-02-22T08:23:11.153Z,102711.02
2019-02-22T08:25:38.694Z,102710.67
2019-02-22T08:28:12.276Z,102708.32
2019-02-22T08:30:38.722Z,102720.97
2019-02-22T08:33:06.295Z,102708.73
2019-02-22T08:35:32.728Z,102725.59
2019-02-22T08:37:59.078Z,102728.78
2019-02-22T08:40:25.196Z,102732.39
2019-02-22T08:42:51.589Z,102730.86
2019-02-22T08:45:17.918Z,102733.98
2019-02-22T08:47:44.131Z,102734.53
2019-02-22T08:50:23.960Z,102745.98
2019-02-22T08:52:50.802Z,102748.77
2019-02-22T08:55:17.125Z,102750.14
2019-02-22T08:57:43.545Z,102749.38
2019-02-22T09:00:11.293Z,102754.91
2019-02-22T09:02:37.753Z,102756.92
2019-02-22T09:05:06.202Z,102753.50
2019-02-22T09:07:32.662Z,102768.03
2019-02-22T09:09:58.869Z,102769.00
2019-02-22T09:12:25.092Z,102771.90
2019-02-22T09:14:51.589Z,102769.41
2019-02-22T09:17:29.937Z,102783.42
2019-02-22T09:19:56.233Z,102781.79
2019-02-22T09:22:23.352Z,102774.73
2019-02-22T09:24:49.843Z,102782.72
2019-02-22T09:27:16.125Z,102790.71
2019-02-22T09:29:42.471Z,102790.83
2019-02-22T09:32:08.745Z,102794.31
2019-02-22T09:34:35.125Z,102803.64
2019-02-22T09:37:07.729Z,102798.44
2019-02-22T09:39:34.088Z,102802.45
2019-02-22T09:42:00.208Z,102804.66
2019-02-22T09:44:32.876Z,102805.66
2019-02-22T09:46:59.121Z,102809.25
2019-02-22T09:49:25.390Z,102818.06
2019-02-22T09:51:56.757Z,102817.45
2019-02-22T09:54:22.969Z,102816.07
2019-02-22T09:56:50.926Z,102822.48
2019-02-22T09:59:17.291Z,102820.08
2019-02-22T10:01:45.731Z,102828.97
2019-02-22T10:04:12.008Z,102823.56
2019-02-22T10:06:38.380Z,102831.98
2019-02-22T10:09:05.204Z,102830.91
2019-02-22T10:11:32.499Z,102835.17
2019-02-22T10:14:06.385Z,102832.30
2019-02-22T10:16:31.818Z,102836.69
2019-02-22T10:18:58.030Z,102836.09
2019-02-22T10:21:24.246Z,102836.87
2019-02-22T10:23:50.625Z,102840.66
2019-02-22T10:26:16.953Z,102839.47
2019-02-22T10:28:43.329Z,102845.19
2019-02-22T10:31:09.581Z,102850.30
2019-02-22T10:33:36.929Z,102847.29
2019-02-22T10:36:06.690Z,102856.06
2019-02-22T10:38:35.676Z,102853.47
2019-02-22T10:41:05.082Z,102853.69
2019-02-22T10:43:31.280Z,102856.66
2019-02-22T10:45:57.515Z,102853.48
2019-02-22T10:48:23.613Z,102852.68
2019-02-22T10:50:49.832Z,102854.80
2019-02-22T10:53:16.098Z,102858.79
2019-02-22T10:55:42.349Z,102857.98
2019-02-22T10:58:13.755Z,102866.30
2019-02-22T11:00:39.882Z,102881.80
2019-02-22T11:03:06.164Z,102874.01
2019-02-22T11:05:32.697Z,102872.19
2019-02-22T11:07:58.890Z,102875.89
2019-02-22T11:10:27.479Z,102875.89
2019-02-22T11:12:53.678Z,102887.11
2019-02-22T11:15:20.036Z,102881.91
2019-02-22T11:17:46.357Z,102880.41
2019-02-22T11:20:13.928Z,102885.30
2019-02-22T11:22:40.185Z,102892.90
2019-02-22T11:25:11.030Z,102895.48
2019-02-22T11:27:37.359Z,102890.59
2019-02-22T11:30:17.903Z,102891.10
2019-02-22T11:35:16.172Z,102903.19
2019-02-22T11:37:42.380Z,102901.09
2019-02-22T11:40:12.159Z,102902.28
2019-02-22T11:42:38.575Z,102908.49
2019-02-22T11:45:07.891Z,102909.70
2019-02-22T11:47:34.314Z,102910.59
2019-02-22T11:50:05.085Z,102901.70
2019-02-22T11:52:31.428Z,102899.39
2019-02-22T11:54:57.778Z,102897.89
2019-02-22T11:57:24.071Z,102901.70
2019-02-22T11:59:50.535Z,102908.61
2019-02-22T12:02:16.772Z,102910.70
2019-02-22T12:04:43.223Z,102916.67
2019-02-22T12:07:09.499Z,102913.30
2019-02-22T12:09:35.625Z,102914.39
2019-02-22T12:12:08.487Z,102916.16
2019-02-22T12:14:34.839Z,102915.34
2019-02-22T12:17:01.189Z,102905.15
2019-02-22T12:19:27.504Z,102915.05
2019-02-22T12:21:53.640Z,102909.80
2019-02-22T12:24:19.783Z,102917.08
2019-02-22T12:26:45.865Z,102914.57
2019-02-22T12:29:12.119Z,102921.47
2019-02-22T12:31:38.524Z,102937.70
2019-02-22T12:34:04.764Z,102927.09
2019-02-22T12:36:30.974Z,102933.91
2019-02-22T12:38:57.281Z,102934.95
2019-02-22T12:41:23.569Z,102928.42
2019-02-22T12:43:49.773Z,102935.72
2019-02-22T12:46:15.987Z,102933.53
2019-02-22T12:48:42.264Z,102937.94
2019-02-22T12:51:08.500Z,102937.45
2019-02-22T12:53:34.616Z,102941.27
2019-02-22T12:56:00.824Z,102942.37
2019-02-22T12:58:27.134Z,102943.95
2019-02-22T13:00:53.472Z,102948.66
2019-02-22T13:03:19.811Z,102949.53
2019-02-22T13:05:45.918Z,102950.73
2019-02-22T13:08:12.366Z,102946.77
2019-02-22T13:10:38.750Z,102948.57
2019-02-22T13:13:05.125Z,102944.75
2019-02-22T13:15:31.369Z,102952.66
2019-02-22T13:17:57.518Z,102949.64
2019-02-22T13:20:24.030Z,102943.51
2019-02-22T13:22:51.568Z,102943.51
2019-02-22T13:25:17.994Z,102941.09
2019-02-22T13:27:44.335Z,102948.45
2019-02-22T13:30:13.482Z,102946.52
2019-02-22T13:32:39.855Z,102946.70
2019-02-22T13:35:06.385Z,102952.52
2019-02-22T13:37:32.934Z,102954.93
2019-02-22T13:39:59.385Z,102955.14
2019-02-22T13:42:25.726Z,102950.95
2019-02-22T13:44:51.934Z,102956.74
2019-02-22T13:47:18.505Z,102954.55
2019-02-22T13:49:44.694Z,102951.73
2019-02-22T13:52:10.996Z,102954.15
2019-02-22T13:54:37.219Z,102964.45
2019-02-22T13:57:03.567Z,102965.13
2019-02-22T13:59:29.936Z,102967.73
2019-02-22T14:01:56.259Z,102973.05
2019-02-22T14:04:22.391Z,102977.04
2019-02-22T14:06:48.729Z,102971.75
2019-02-22T14:09:15.176Z,102967.20
2019-02-22T14:11:41.566Z,102971.04
2019-02-22T14:14:07.974Z,102985.75
2019-02-22T14:16:34.488Z,102987.88
2019-02-22T14:19:00.831Z,102977.33
2019-02-22T14:21:26.966Z,102975.55
2019-02-22T14:23:53.239Z,102983.14
2019-02-22T14:26:19.591Z,102986.79
2019-02-22T14:28:45.859Z,102981.81
2019-02-22T14:31:12.208Z,102995.11
2019-02-22T14:33:39.414Z,102995.73
2019-02-22T14:36:05.702Z,102995.23
2019-02-22T14:38:32.009Z,102985.01
2019-02-22T14:40:58.318Z,102983.30
2019-02-22T14:43:24.595Z,102983.02
2019-02-22T14:45:53.222Z,102981.80
2019-02-22T14:48:18.933Z,102977.15
2019-02-22T14:50:45.367Z,102984.00
2019-02-22T14:53:19.086Z,102980.09
2019-02-22T14:55:39.683Z,102973.77
2019-02-22T14:58:06.040Z,102972.59
2019-02-22T15:00:32.352Z,102975.58
2019-02-22T15:02:58.731Z,102971.67
2019-02-22T15:05:25.065Z,102966.59
2019-02-22T15:07:51.482Z,102976.30
2019-02-22T15:10:19.159Z,102980.80
2019-02-22T15:12:45.506Z,102985.41
2019-02-22T15:15:13.388Z,102983.69
2019-02-22T15:17:41.587Z,102987.33
2019-02-22T15:20:08.011Z,102991.12
2019-02-22T15:22:34.150Z,102994.61
2019-02-22T15:25:00.429Z,102990.92
2019-02-22T15:27:26.581Z,102993.80
2019-02-22T15:29:52.971Z,102998.41
2019-02-22T15:32:19.220Z,103003.72
2019-02-22T15:34:45.440Z,103007.04
2019-02-22T15:37:11.766Z,103010.66
2019-02-22T15:39:38.222Z,103007.04
2019-02-22T15:42:04.631Z,103006.52
2019-02-22T15:44:30.841Z,103005.84
2019-02-22T15:46:57.194Z,103008.64
2019-02-22T15:49:23.500Z,102997.22
2019-02-22T15:51:49.704Z,102997.94
2019-02-22T15:54:16.036Z,103000.82
2019-02-22T15:56:42.178Z,102993.61
2019-02-22T15:59:08.899Z,103001.80
2019-02-22T16:01:35.111Z,103014.90
2019-02-22T16:04:03.385Z,103018.52
2019-02-22T16:06:32.221Z,103017.71
2019-02-22T16:08:58.089Z,103023.50
2019-02-22T16:11:25.438Z,103026.79
2019-02-22T16:13:51.804Z,103031.53
2019-02-22T16:16:23.260Z,103023.98
2019-02-22T16:18:46.305Z,103025.81
2019-02-22T16:21:12.422Z,103037.61
2019-02-22T16:23:38.933Z,103037.00
2019-02-22T16:26:05.180Z,103037.61
2019-02-22T16:28:31.577Z,103042.00
2019-02-22T16:30:57.796Z,103035.29
2019-02-22T16:33:24.062Z,103041.84
2019-02-22T16:35:50.284Z,103038.95
2019-02-22T16:38:16.521Z,103040.54
2019-02-22T16:40:42.855Z,103045.14
2019-02-22T16:43:09.110Z,103046.23
2019-02-22T16:45:35.550Z,103050.30
2019-02-22T16:48:01.785Z,103054.11
2019-02-22T16:50:28.106Z,103061.30
2019-02-22T16:52:54.420Z,103060.81
2019-02-22T16:55:20.682Z,103070.77
2019-02-22T16:57:47.053Z,103060.22
2019-02-22T17:00:15.061Z,103058.04
2019-02-22T17:02:41.428Z,103059.12
2019-02-22T17:05:09.811Z,103073.22
2019-02-22T17:07:36.163Z,103077.67
2019-02-22T17:10:05.047Z,103074.94
2019-02-22T17:12:31.461Z,103082.59
2019-02-22T17:14:57.611Z,103084.31
2019-02-22T17:17:23.963Z,103088.07
2019-02-22T17:19:50.164Z,103090.75
2019-02-22T17:22:16.300Z,103081.37
2019-02-22T17:24:42.498Z,103091.83
2019-02-22T17:27:08.737Z,103089.86
2019-02-22T17:29:34.991Z,103087.33
2019-02-22T17:32:01.423Z,103089.58
2019-02-22T17:34:27.904Z,103082.59
2019-02-22T17:36:54.295Z,103092.46
2019-02-22T17:39:20.703Z,103097.58
2019-02-22T17:41:47.087Z,103102.49
2019-02-22T17:44:13.457Z,103107.91
2019-02-22T17:46:39.689Z,103121.29
2019-02-22T17:49:06.167Z,103127.02
2019-02-22T17:51:32.303Z,103124.77
2019-02-22T17:53:58.718Z,103132.67
2019-02-22T17:56:25.059Z,103131.92
2019-02-22T17:58:51.426Z,103125.91
2019-02-22T18:01:17.690Z,103114.05
2019-02-22T18:03:43.938Z,103109.41
2019-02-22T18:06:10.140Z,103119.75
2019-02-22T18:08:36.508Z,103115.16
2019-02-22T18:11:02.859Z,103126.98
2019-02-22T18:13:29.097Z,103125.64
2019-02-22T18:15:55.288Z,103136.88
2019-02-22T18:18:21.777Z,103139.20
2019-02-22T18:20:49.506Z,103132.05
2019-02-22T18:23:15.708Z,103135.45
2019-02-22T18:25:42.154Z,103146.59
2019-02-22T18:28:08.483Z,103146.67
2019-02-22T18:30:34.762Z,103144.34
2019-02-22T18:33:01.125Z,103141.48
2019-02-22T18:35:27.506Z,103147.92
2019-02-22T18:37:53.652Z,103146.59
2019-02-22T18:40:21.316Z,103155.66
2019-02-22T18:42:47.703Z,103154.45
2019-02-22T18:45:14.518Z,103152.70
2019-02-22T18:47:40.755Z,103147.89
2019-02-22T18:50:10.763Z,103146.17
2019-02-22T18:52:37.335Z,103147.24
2019-02-22T18:55:09.941Z,103147.11
2019-02-22T18:57:36.384Z,103148.45
2019-02-22T19:00:08.665Z,103150.22
2019-02-22T19:02:34.894Z,103153.88
2019-02-22T19:05:13.685Z,103161.45
2019-02-22T19:07:40.126Z,103157.83
2019-02-22T19:10:08.943Z,103147.09
2019-02-22T19:12:35.326Z,103140.34
2019-02-22T19:15:06.879Z,103132.86
2019-02-22T19:17:37.250Z,103143.41
2019-02-22T19:20:13.396Z,103143.84
2019-02-22T19:22:39.616Z,103149.32
2019-02-22T19:25:07.234Z,103154.50
2019-02-22T19:27:33.519Z,103151.81
2019-02-22T19:29:59.787Z,103147.30
2019-02-22T19:32:26.169Z,103148.05
2019-02-22T19:34:52.330Z,103147.56
2019-02-22T19:37:18.486Z,103156.98
2019-02-22T19:39:44.730Z,103159.33
2019-02-22T19:42:11.086Z,103163.00
2019-02-22T19:44:37.325Z,103153.45
2019-02-22T19:47:05.035Z,103146.75
2019-02-22T19:49:31.341Z,103142.64
2019-02-22T19:51:57.615Z,103149.66
2019-02-22T19:54:23.812Z,103142.22
2019-02-22T19:56:50.236Z,103147.91
2019-02-22T19:59:16.619Z,103155.69
2019-02-22T20:01:43.060Z,103154.14
2019-02-22T20:04:09.631Z,103144.20
2019-02-22T20:06:35.885Z,103145.59
2019-02-22T20:09:09.472Z,103151.03
2019-02-22T20:11:37.225Z,103153.27
2019-02-22T20:14:06.150Z,103153.13
2019-02-22T20:16:32.449Z,103151.66
2019-02-22T20:18:58.692Z,103156.62
2019-02-22T20:21:24.802Z,103153.50
2019-02-22T20:23:51.052Z,103159.33
2019-02-22T20:26:18.356Z,103159.58
2019-02-22T20:28:47.223Z,103168.13
2019-02-22T20:31:20.373Z,103174.05
2019-02-22T20:33:44.010Z,103178.97
2019-02-22T20:36:10.625Z,103186.48
2019-02-22T20:38:38.865Z,103200.45
2019-02-22T20:41:05.591Z,103205.86
2019-02-22T20:43:31.949Z,103218.23
2019-02-22T20:45:58.239Z,103218.48
2019-02-22T20:48:24.353Z,103221.85
2019-02-22T20:50:50.772Z,103230.39
2019-02-22T20:53:17.584Z,103226.52
2019-02-22T20:55:44.257Z,103229.13
2019-02-22T20:58:10.807Z,103234.25
2019-02-22T21:00:39.833Z,103235.01
2019-02-22T21:03:16.229Z,103235.01
2019-02-22T21:05:53.376Z,103236.05
2019-02-22T21:08:19.702Z,103245.95
2019-02-22T21:10:46.276Z,103243.11
2019-02-22T21:13:18.417Z,103239.11
2019-02-22T21:15:44.709Z,103232.09
2019-02-22T21:18:16.226Z,103234.41
2019-02-22T21:20:40.369Z,103235.15
2019-02-22T21:23:06.624Z,103245.65
2019-02-22T21:25:32.813Z,103240.61
2019-02-22T21:27:59.319Z,103234.08
2019-02-22T21:30:27.014Z,103234.45
2019-02-22T21:32:53.239Z,103237.90
2019-02-22T21:35:19.510Z,103236.34
2019-02-22T21:37:45.875Z,103243.85
2019-02-22T21:40:13.017Z,103236.45
2019-02-22T21:42:39.381Z,103233.37
2019-02-22T21:45:15.481Z,103246.88
2019-02-22T21:47:53.763Z,103244.27
2019-02-22T21:50:12.692Z,103240.94
2019-02-22T21:52:41.671Z,103237.94
2019-02-22T21:55:16.429Z,103241.00
2019-02-22T21:57:42.879Z,103250.16
2019-02-22T22:00:23.589Z,103255.86
2019-02-22T22:02:49.942Z,103263.73
2019-02-22T22:05:16.358Z,103268.45
2019-02-22T22:07:42.639Z,103271.75
2019-02-22T22:10:13.217Z,103279.80
2019-02-22T22:12:39.538Z,103268.89
2019-02-22T22:15:11.433Z,103265.69
2019-02-22T22:17:37.694Z,103262.88
2019-02-22T22:20:07.885Z,103273.70
2019-02-22T22:22:35.339Z,103261.00
2019-02-22T22:25:03.195Z,103255.00
2019-02-22T22:27:29.441Z,103261.77
2019-02-22T22:29:55.590Z,103259.82
2019-02-22T22:32:21.801Z,103264.59
2019-02-22T22:34:48.143Z,103276.71
2019-02-22T22:37:14.378Z,103274.67
2019-02-22T22:39:40.700Z,103272.52
2019-02-22T22:42:07.030Z,103276.98
2019-02-22T22:44:33.259Z,103275.05
2019-02-22T22:46:59.351Z,103283.07
2019-02-22T22:49:25.588Z,103282.23
2019-02-22T22:51:51.850Z,103284.63
2019-02-22T22:54:18.187Z,103293.11
2019-02-22T22:56:44.451Z,103297.44
2019-02-22T22:59:10.652Z,103289.70
2019-02-22T23:01:37.336Z,103284.19
2019-02-22T23:04:04.827Z,103293.11
2019-02-22T23:06:31.136Z,103299.28
2019-02-22T23:08:57.420Z,103294.36
2019-02-22T23:11:23.701Z,103297.15
2019-02-22T23:13:49.967Z,103297.22
2019-02-22T23:16:16.284Z,103300.25
2019-02-22T23:18:42.396Z,103302.48
2019-02-22T23:21:08.894Z,103297.10
2019-02-22T23:23:35.187Z,103294.03
2019-02-22T23:26:01.707Z,103291.45
2019-02-22T23:28:27.897Z,103298.85
2019-02-22T23:30:54.113Z,103289.27
2019-02-22T23:33:20.495Z,103283.84
2019-02-22T23:35:46.604Z,103282.70
2019-02-22T23:38:13.111Z,103279.79
2019-02-22T23:40:39.312Z,103277.32
2019-02-22T23:43:05.419Z,103276.36
2019-02-22T23:45:31.906Z,103282.65
2019-02-22T23:47:58.071Z,103277.16
2019-02-22T23:50:24.169Z,103279.90
2019-02-22T23:52:50.361Z,103292.45
2019-02-22T23:55:17.631Z,103289.15
2019-02-22T23:57:43.816Z,103277.93
